Time;durP1;ratioP1;P1;durP2;ratioP2;P2;SDS_P1;SDS_P2;PMS_P1;PMS_P2;Temp;Humidity;BMP_temperature;BMP_pressure;BME280_temperature;BME280_humidity;BME280_pressure;Samples;Min_cycle;Max_cycle;Signal;HPM_P1;HPM_P2
2021/05/18 00:00:24;;;;;;;31.57;7.23;;;10.50;99.90;;;;;;5064048;28;20241;-67
2021/05/18 00:02:52;;;;;;;21.20;7.00;;;10.40;99.90;;;;;;5065430;28;20716;-67
2021/05/18 00:05:22;;;;;;;31.97;7.90;;;10.40;99.90;;;;;;5061710;28;20228;-67
2021/05/18 00:07:55;;;;;;;18.97;7.07;;;10.40;99.90;;;;;;5066336;28;20196;-67
2021/05/18 00:13:11;;;;;;;25.90;7.27;;;10.50;99.90;;;;;;5064536;28;22671;-67
2021/05/18 00:15:40;;;;;;;21.17;6.80;;;10.50;99.90;;;;;;5064419;28;20192;-67
2021/05/18 00:18:09;;;;;;;27.33;7.60;;;10.40;99.90;;;;;;5062980;28;20724;-67
2021/05/18 00:20:37;;;;;;;25.17;7.60;;;10.40;99.90;;;;;;5065529;28;20188;-67
2021/05/18 00:23:08;;;;;;;21.30;7.67;;;10.40;99.90;;;;;;5066208;28;20287;-68
2021/05/18 00:25:36;;;;;;;18.93;7.60;;;10.40;99.90;;;;;;5065192;28;20200;-67
2021/05/18 00:28:04;;;;;;;25.13;7.57;;;10.40;99.90;;;;;;5065280;28;20200;-67
2021/05/18 00:30:34;;;;;;;17.13;7.07;;;10.40;99.90;;;;;;5059682;28;20664;-68
2021/05/18 00:33:08;;;;;;;24.87;7.83;;;10.40;99.90;;;;;;5067281;28;20224;-67
2021/05/18 00:35:36;;;;;;;22.43;7.33;;;10.40;99.90;;;;;;5065851;28;20600;-67
2021/05/18 00:38:04;;;;;;;30.83;8.30;;;10.40;99.90;;;;;;5063051;28;20285;-67
2021/05/18 00:40:33;;;;;;;18.47;7.60;;;10.40;99.90;;;;;;5062553;28;20238;-67
2021/05/18 00:43:01;;;;;;;27.77;7.30;;;10.40;99.90;;;;;;5068297;28;20193;-67
2021/05/18 00:45:31;;;;;;;22.60;7.83;;;10.40;99.90;;;;;;5063673;28;20250;-67
2021/05/18 00:48:01;;;;;;;27.00;7.60;;;10.40;99.90;;;;;;5066808;28;20234;-67
2021/05/18 00:50:30;;;;;;;25.73;7.67;;;10.40;99.90;;;;;;5066218;28;20315;-67
2021/05/18 00:52:58;;;;;;;20.47;7.67;;;10.40;99.90;;;;;;5065996;28;20245;-67
2021/05/18 00:55:35;;;;;;;25.73;8.10;;;10.40;99.90;;;;;;5067795;28;20238;-67
2021/05/18 01:00:52;;;;;;;23.37;8.07;;;10.40;99.90;;;;;;5060360;28;21038;-67
2021/05/18 01:03:22;;;;;;;24.97;8.00;;;10.40;99.90;;;;;;5065354;28;20212;-67
2021/05/18 01:08:36;;;;;;;26.27;8.47;;;10.40;99.90;;;;;;5065165;28;20215;-67
2021/05/18 01:11:05;;;;;;;26.80;9.20;;;10.40;99.90;;;;;;5065213;28;20247;-67
2021/05/18 01:13:34;;;;;;;30.47;8.70;;;10.40;99.90;;;;;;5066552;28;20288;-67
2021/05/18 01:16:03;;;;;;;24.23;8.40;;;10.40;99.90;;;;;;5065742;28;20204;-67
2021/05/18 01:18:36;;;;;;;27.70;8.73;;;10.40;99.90;;;;;;5064251;28;20219;-67
2021/05/18 01:21:06;;;;;;;24.17;8.50;;;10.40;99.90;;;;;;5064262;28;20188;-67
2021/05/18 01:23:35;;;;;;;26.07;8.90;;;10.40;99.90;;;;;;5064703;28;20554;-67
2021/05/18 01:26:03;;;;;;;25.03;8.53;;;10.40;99.90;;;;;;5066384;28;20662;-67
2021/05/18 01:28:32;;;;;;;22.47;7.83;;;10.40;99.90;;;;;;5064335;28;20231;-67
2021/05/18 01:31:01;;;;;;;24.47;8.97;;;10.50;99.90;;;;;;5063601;28;20192;-67
2021/05/18 01:33:29;;;;;;;26.87;9.60;;;10.50;99.90;;;;;;5062283;28;20241;-67
2021/05/18 01:36:01;;;;;;;25.90;9.27;;;10.50;99.90;;;;;;5064561;28;20227;-67
2021/05/18 01:38:35;;;;;;;26.97;9.83;;;10.50;99.90;;;;;;5065348;28;20294;-67
2021/05/18 01:43:56;;;;;;;30.97;9.80;;;10.50;99.90;;;;;;5005011;28;20330;-67
2021/05/18 01:46:26;;;;;;;22.77;9.40;;;10.50;99.90;;;;;;5063670;28;20227;-67
2021/05/18 01:48:58;;;;;;;30.43;10.13;;;10.50;99.90;;;;;;5056372;28;20188;-67
2021/05/18 01:51:30;;;;;;;26.33;11.33;;;10.60;99.90;;;;;;5063067;28;20361;-67
2021/05/18 01:54:04;;;;;;;33.17;10.73;;;10.50;99.90;;;;;;5062682;28;20204;-67
2021/05/18 01:56:41;;;;;;;30.67;10.17;;;10.50;99.90;;;;;;5060724;28;20204;-67
2021/05/18 01:59:12;;;;;;;23.10;9.83;;;10.50;99.90;;;;;;5062688;28;20269;-67
2021/05/18 02:01:41;;;;;;;24.13;9.30;;;10.50;99.90;;;;;;5066011;28;20212;-67
2021/05/18 02:04:21;;;;;;;28.87;9.90;;;10.50;99.90;;;;;;5063490;28;20192;-67
2021/05/18 02:06:49;;;;;;;24.30;9.30;;;10.50;99.90;;;;;;5066910;28;20563;-67
2021/05/18 02:09:19;;;;;;;19.37;9.07;;;10.50;99.90;;;;;;5068028;28;20223;-67
2021/05/18 02:11:47;;;;;;;29.23;8.83;;;10.50;99.90;;;;;;5060449;28;20246;-67
2021/05/18 02:14:22;;;;;;;32.00;9.60;;;10.60;99.90;;;;;;5063898;28;20200;-67
2021/05/18 02:16:50;;;;;;;24.90;9.57;;;10.50;99.90;;;;;;5063425;28;20255;-67
2021/05/18 02:19:26;;;;;;;28.97;10.07;;;10.50;99.90;;;;;;5064025;28;20191;-67
2021/05/18 02:22:05;;;;;;;29.30;10.60;;;10.50;99.90;;;;;;5059102;28;20280;-67
2021/05/18 02:24:39;;;;;;;29.80;10.27;;;10.50;99.90;;;;;;5059527;28;20188;-67
2021/05/18 02:27:07;;;;;;;27.63;10.63;;;10.50;99.90;;;;;;5061171;28;20188;-67
2021/05/18 02:29:35;;;;;;;31.57;10.53;;;10.50;99.90;;;;;;5063566;28;20192;-67
2021/05/18 02:32:04;;;;;;;22.00;10.53;;;10.50;99.90;;;;;;5062302;28;20238;-67
2021/05/18 02:34:33;;;;;;;30.77;11.20;;;10.50;99.90;;;;;;5064241;28;20232;-67
2021/05/18 02:37:03;;;;;;;25.70;11.17;;;10.50;99.90;;;;;;5065863;28;20216;-67
2021/05/18 02:39:31;;;;;;;25.30;10.27;;;10.50;99.90;;;;;;5066869;28;20310;-67
2021/05/18 02:41:59;;;;;;;25.83;9.80;;;10.40;99.90;;;;;;5065587;28;20220;-67
2021/05/18 02:44:32;;;;;;;27.73;10.40;;;10.40;99.90;;;;;;5060972;28;20286;-67
2021/05/18 02:49:46;;;;;;;23.40;10.50;;;10.30;99.90;;;;;;5065025;28;20195;-67
2021/05/18 02:52:14;;;;;;;31.80;10.93;;;10.30;99.90;;;;;;5059510;28;20212;-67
2021/05/18 02:54:45;;;;;;;31.80;10.87;;;10.20;99.90;;;;;;5065915;28;20270;-67
2021/05/18 02:57:18;;;;;;;35.53;10.97;;;10.20;99.90;;;;;;5064811;28;20196;-67
2021/05/18 02:59:47;;;;;;;25.30;9.70;;;10.20;99.90;;;;;;5064765;28;20226;-67
2021/05/18 03:02:15;;;;;;;26.23;9.97;;;10.20;99.90;;;;;;5064145;28;20275;-67
2021/05/18 03:04:42;;;;;;;29.30;10.50;;;10.20;99.90;;;;;;5061168;28;20207;-67
2021/05/18 03:07:10;;;;;;;25.23;11.27;;;10.20;99.90;;;;;;5065565;28;20290;-67
2021/05/18 03:09:38;;;;;;;22.70;10.30;;;10.10;99.90;;;;;;5068110;28;20188;-67
2021/05/18 03:12:06;;;;;;;30.33;10.50;;;10.10;99.90;;;;;;5060218;28;20651;-67
2021/05/18 03:14:35;;;;;;;26.77;10.80;;;10.10;99.90;;;;;;5045107;28;20601;-67
2021/05/18 03:17:03;;;;;;;28.33;11.23;;;10.10;99.90;;;;;;5055339;28;20192;-67
2021/05/18 03:19:31;;;;;;;24.87;10.50;;;10.00;99.90;;;;;;5063853;28;20180;-67
2021/05/18 03:21:58;;;;;;;30.27;10.90;;;10.00;99.90;;;;;;5062989;28;20649;-67
2021/05/18 03:24:27;;;;;;;37.10;11.53;;;10.00;99.90;;;;;;5064825;28;20281;-67
2021/05/18 03:26:54;;;;;;;32.70;10.93;;;10.00;99.90;;;;;;5065594;28;20730;-67
2021/05/18 03:29:26;;;;;;;31.93;11.00;;;10.00;99.90;;;;;;5062071;28;20231;-67
2021/05/18 03:34:43;;;;;;;26.93;10.10;;;10.00;99.90;;;;;;5062207;28;20224;-67
2021/05/18 03:37:16;;;;;;;29.90;10.77;;;10.00;99.90;;;;;;5062145;28;20286;-67
2021/05/18 03:39:47;;;;;;;26.53;10.63;;;10.00;99.90;;;;;;5056984;28;20566;-67
2021/05/18 03:42:18;;;;;;;20.83;10.27;;;10.00;99.90;;;;;;5063312;28;20287;-67
2021/05/18 03:45:03;;;;;;;30.07;10.37;;;10.00;99.90;;;;;;5062148;28;20196;-67
2021/05/18 03:53:20;;;;;;;33.10;11.17;;;10.00;99.90;;;;;;5061352;28;20297;-67
2021/05/18 03:58:39;;;;;;;23.53;11.07;;;10.00;99.90;;;;;;5028608;28;20258;-67
2021/05/18 04:04:03;;;;;;;27.30;10.57;;;10.00;99.90;;;;;;5063136;28;20291;-67
2021/05/18 04:12:13;;;;;;;22.90;9.70;;;10.00;99.90;;;;;;5059068;28;20211;-67
2021/05/18 04:17:30;;;;;;;25.67;9.90;;;10.00;99.90;;;;;;5069790;28;20223;-67
2021/05/18 04:20:10;;;;;;;28.23;11.07;;;10.00;99.90;;;;;;5065477;28;20204;-67
2021/05/18 04:39:24;;;;;;;32.07;11.10;;;10.10;99.90;;;;;;5062340;28;20722;-67
2021/05/18 04:50:48;;;;;;;22.33;9.87;;;10.10;99.90;;;;;;5067221;28;20265;-67
2021/05/18 04:53:22;;;;;;;17.30;10.73;;;10.10;99.90;;;;;;5064442;28;20987;-67
2021/05/18 05:01:28;;;;;;;18.77;9.77;;;10.20;99.90;;;;;;5066598;28;20191;-67
2021/05/18 05:04:08;;;;;;;15.77;9.83;;;10.20;99.90;;;;;;5066893;28;20230;-67
2021/05/18 05:06:47;;;;;;;13.43;9.10;;;10.30;99.90;;;;;;5065264;28;20211;-68
2021/05/18 05:09:23;;;;;;;16.70;8.70;;;10.30;99.90;;;;;;5065575;28;20192;-67
2021/05/18 05:14:38;;;;;;;15.83;8.17;;;10.50;99.90;;;;;;5063131;28;20287;-67
2021/05/18 05:17:06;;;;;;;14.93;7.67;;;10.60;99.90;;;;;;5060000;28;20255;-67
2021/05/18 05:19:35;;;;;;;11.73;7.73;;;10.60;99.90;;;;;;5065050;28;20196;-67
2021/05/18 05:22:04;;;;;;;13.27;6.23;;;10.60;99.90;;;;;;5065378;28;20261;-67
2021/05/18 05:24:33;;;;;;;13.43;7.33;;;10.70;99.90;;;;;;5066949;28;20679;-67
2021/05/18 05:27:01;;;;;;;8.77;6.53;;;10.80;99.90;;;;;;5068624;28;20184;-67
2021/05/18 05:29:30;;;;;;;13.13;6.30;;;10.90;99.90;;;;;;5057579;28;20254;-67
2021/05/18 05:31:57;;;;;;;20.27;6.23;;;11.00;99.90;;;;;;5069000;28;20552;-67
2021/05/18 05:34:25;;;;;;;12.70;5.97;;;11.00;99.90;;;;;;5063938;28;20253;-67
2021/05/18 05:36:53;;;;;;;7.90;5.57;;;10.90;99.90;;;;;;5062207;28;20200;-67
2021/05/18 05:39:23;;;;;;;11.33;5.73;;;11.00;99.90;;;;;;5065480;28;20224;-67
2021/05/18 05:41:53;;;;;;;17.63;5.70;;;11.10;99.90;;;;;;5063077;28;20285;-67
2021/05/18 05:44:22;;;;;;;9.03;5.57;;;11.10;99.90;;;;;;5058644;28;20184;-67
2021/05/18 05:46:50;;;;;;;9.00;4.87;;;11.20;99.90;;;;;;5064759;28;20206;-67
2021/05/18 05:49:18;;;;;;;8.20;4.83;;;11.30;99.90;;;;;;5065191;28;20192;-67
2021/05/18 05:51:46;;;;;;;8.20;4.33;;;11.40;99.90;;;;;;5057304;28;20664;-67
2021/05/18 05:54:14;;;;;;;5.40;4.40;;;11.60;99.90;;;;;;5055934;28;20213;-67
2021/05/18 05:56:42;;;;;;;4.80;4.00;;;11.60;99.90;;;;;;5060410;28;20569;-67
2021/05/18 05:59:11;;;;;;;9.53;4.70;;;11.70;99.90;;;;;;5063237;28;20223;-67
2021/05/18 06:01:39;;;;;;;6.07;5.27;;;11.70;99.90;;;;;;5065535;28;20196;-67
2021/05/18 06:04:06;;;;;;;12.80;5.47;;;11.60;99.90;;;;;;5063717;28;20302;-66
2021/05/18 06:06:34;;;;;;;8.03;5.30;;;11.70;99.90;;;;;;5066433;28;20226;-67
2021/05/18 06:09:03;;;;;;;11.83;4.93;;;11.60;99.90;;;;;;5059328;28;20188;-67
2021/05/18 06:11:39;;;;;;;6.37;4.73;;;11.60;99.90;;;;;;5057388;28;20254;-66
2021/05/18 06:14:18;;;;;;;5.37;4.30;;;11.50;99.90;;;;;;5064168;28;20262;-67
2021/05/18 06:17:13;;;;;;;7.97;4.70;;;11.50;99.90;;;;;;5067108;28;20223;-67
2021/05/18 06:34:16;;;;;;;7.17;4.80;;;11.60;99.90;;;;;;5050535;28;20285;-67
2021/05/18 06:43:01;;;;;;;12.43;6.47;;;11.50;99.90;;;;;;5018724;28;20250;-67
2021/05/18 06:48:15;;;;;;;18.77;8.20;;;11.50;99.90;;;;;;5066502;28;20766;-67
2021/05/18 06:50:43;;;;;;;13.47;8.50;;;11.60;99.90;;;;;;5064376;28;20218;-67
2021/05/18 06:53:11;;;;;;;12.30;8.03;;;11.50;99.90;;;;;;5065639;28;20247;-67
2021/05/18 06:55:39;;;;;;;16.73;9.73;;;11.60;99.90;;;;;;5066592;28;20709;-67
2021/05/18 06:58:09;;;;;;;11.20;9.43;;;11.70;99.90;;;;;;5062984;28;20718;-67
2021/05/18 07:00:37;;;;;;;14.40;10.60;;;11.80;99.90;;;;;;5059081;28;20250;-67
2021/05/18 07:03:08;;;;;;;13.40;11.07;;;11.80;99.90;;;;;;5063367;28;20742;-67
2021/05/18 07:05:39;;;;;;;15.47;10.73;;;11.80;99.90;;;;;;5062071;28;20189;-67
2021/05/18 07:08:29;;;;;;;16.80;11.03;;;12.00;99.90;;;;;;5064341;28;20219;-67
2021/05/18 07:10:57;;;;;;;14.87;10.80;;;12.10;99.90;;;;;;5062330;28;20204;-66
2021/05/18 07:13:26;;;;;;;15.87;10.57;;;12.30;99.90;;;;;;5059391;28;20208;-67
2021/05/18 07:15:54;;;;;;;11.37;9.80;;;12.30;99.90;;;;;;5066769;28;20746;-66
2021/05/18 07:18:21;;;;;;;13.00;10.57;;;12.20;99.90;;;;;;5063466;28;20728;-67
2021/05/18 07:20:50;;;;;;;14.33;10.63;;;12.20;99.90;;;;;;5064192;28;20411;-66
2021/05/18 07:23:22;;;;;;;12.80;9.97;;;12.20;99.90;;;;;;5065053;28;20196;-67
2021/05/18 07:25:51;;;;;;;11.60;9.53;;;12.50;99.90;;;;;;5066333;28;20659;-67
2021/05/18 07:28:20;;;;;;;11.77;9.17;;;12.80;99.90;;;;;;5066277;28;20184;-67
2021/05/18 07:30:49;;;;;;;12.37;8.63;;;13.00;99.90;;;;;;5068803;28;20279;-67
2021/05/18 07:33:17;;;;;;;10.33;7.97;;;13.40;99.90;;;;;;5064676;28;20219;-67
2021/05/18 07:35:46;;;;;;;10.57;8.07;;;13.50;99.90;;;;;;5061638;28;20196;-67
2021/05/18 07:38:14;;;;;;;7.87;7.10;;;13.80;99.90;;;;;;5063864;28;20236;-66
2021/05/18 07:40:43;;;;;;;10.17;7.60;;;14.00;99.90;;;;;;5066388;28;20279;-67
2021/05/18 07:43:13;;;;;;;8.73;6.90;;;14.20;99.90;;;;;;5063015;28;20283;-67
2021/05/18 07:45:41;;;;;;;8.17;6.87;;;13.90;99.90;;;;;;5069588;28;20296;-67
2021/05/18 07:48:16;;;;;;;7.67;6.50;;;13.60;99.90;;;;;;5063786;28;20196;-67
2021/05/18 07:50:47;;;;;;;6.67;6.07;;;13.70;99.90;;;;;;5069621;28;20521;-67
2021/05/18 08:07:15;;;;;;;5.40;4.30;;;15.30;99.90;;;;;;5066385;28;20192;-67
2021/05/18 08:09:46;;;;;;;5.83;3.83;;;15.40;99.90;;;;;;5062277;28;20246;-67
2021/05/18 08:12:14;;;;;;;5.27;4.17;;;15.40;99.90;;;;;;5067899;28;20249;-67
2021/05/18 08:14:46;;;;;;;5.63;3.63;;;15.10;99.90;;;;;;5071920;28;20220;-67
2021/05/18 08:17:19;;;;;;;3.80;3.53;;;15.00;99.90;;;;;;5069365;28;20222;-67
2021/05/18 10:36:01;;;;;;;2.63;2.43;;;16.90;99.90;;;;;;5053795;28;20686;-66
2021/05/18 10:38:33;;;;;;;3.10;2.47;;;16.90;99.90;;;;;;5063977;28;20231;-67
2021/05/18 10:41:13;;;;;;;2.27;2.00;;;16.70;99.90;;;;;;5058990;28;20227;-67
2021/05/18 10:43:44;;;;;;;2.17;2.07;;;16.70;99.90;;;;;;5060248;28;20191;-66
2021/05/18 10:46:18;;;;;;;2.00;1.97;;;17.20;99.90;;;;;;5062845;28;20200;-66
2021/05/18 10:48:53;;;;;;;2.17;2.07;;;18.10;99.90;;;;;;5066180;28;20240;-67
2021/05/18 10:51:36;;;;;;;2.50;2.10;;;19.00;99.90;;;;;;5056777;28;20246;-67
2021/05/18 10:54:24;;;;;;;3.20;1.90;;;18.40;99.90;;;;;;5064959;28;20226;-66
2021/05/18 10:57:27;;;;;;;2.57;1.93;;;17.70;99.90;;;;;;5063216;28;20215;-66
2021/05/18 10:59:59;;;;;;;2.73;2.13;;;17.00;99.90;;;;;;5061233;28;20199;-66
2021/05/18 11:02:30;;;;;;;2.20;2.10;;;16.70;99.90;;;;;;5058250;28;20255;-66
2021/05/18 11:05:00;;;;;;;1.87;1.77;;;16.90;99.90;;;;;;5068464;28;20196;-67
2021/05/18 11:07:34;;;;;;;1.90;1.80;;;17.60;99.90;;;;;;5058361;28;20189;-66
2021/05/18 11:10:04;;;;;;;2.13;1.90;;;17.30;99.90;;;;;;5056480;28;20183;-66
2021/05/18 11:12:32;;;;;;;2.50;2.20;;;17.20;99.90;;;;;;5064347;28;20662;-66
2021/05/18 11:15:13;;;;;;;3.23;2.23;;;17.10;99.90;;;;;;5061908;28;20307;-66
2021/05/18 11:17:43;;;;;;;2.20;2.10;;;17.50;99.90;;;;;;5060073;28;20227;-67
2021/05/18 11:20:22;;;;;;;2.30;2.10;;;18.30;99.90;;;;;;5066698;28;20230;-66
2021/05/18 11:25:49;;;;;;;2.07;1.80;;;17.70;99.90;;;;;;5070291;28;20543;-66
2021/05/18 11:28:23;;;;;;;3.13;1.93;;;17.00;99.90;;;;;;5067105;28;20217;-67
2021/05/18 11:30:53;;;;;;;3.03;1.93;;;16.70;99.90;;;;;;5070487;28;20276;-64
2021/05/18 11:33:29;;;;;;;2.10;2.00;;;16.70;99.90;;;;;;5062382;28;20192;-63
2021/05/18 11:36:07;;;;;;;3.53;2.07;;;16.90;99.90;;;;;;5065796;28;20224;-64
2021/05/18 11:38:36;;;;;;;1.97;1.87;;;17.10;99.90;;;;;;5066070;28;20235;-64
2021/05/18 11:41:04;;;;;;;2.50;1.87;;;17.60;99.90;;;;;;5069347;28;20674;-64
2021/05/18 11:43:37;;;;;;;2.00;1.80;;;17.90;99.90;;;;;;5068323;28;20271;-64
2021/05/18 11:46:09;;;;;;;2.37;1.77;;;18.10;99.90;;;;;;5071053;28;20219;-64
2021/05/18 11:48:39;;;;;;;2.20;1.57;;;18.30;99.90;;;;;;5054677;28;20645;-65
2021/05/18 11:51:10;;;;;;;1.60;1.60;;;18.20;99.90;;;;;;5067050;28;20192;-64
2021/05/18 11:53:41;;;;;;;1.60;1.50;;;18.40;99.90;;;;;;5067262;28;20196;-67
2021/05/18 11:56:21;;;;;;;1.90;1.80;;;18.60;99.90;;;;;;5068910;28;20588;-66
2021/05/18 11:58:49;;;;;;;1.83;1.30;;;18.30;99.90;;;;;;5063465;28;20613;-66
2021/05/18 12:01:18;;;;;;;1.80;1.60;;;18.00;99.90;;;;;;5068093;28;20204;-66
2021/05/18 12:03:45;;;;;;;1.30;1.20;;;17.60;99.90;;;;;;5068281;28;20188;-66
2021/05/18 12:06:15;;;;;;;1.63;1.40;;;17.50;99.90;;;;;;5066694;28;20191;-67
2021/05/18 12:08:43;;;;;;;1.60;1.50;;;17.40;99.90;;;;;;5066130;28;20196;-67
2021/05/18 12:11:17;;;;;;;1.70;1.60;;;17.90;99.90;;;;;;5060371;28;20287;-68
2021/05/18 12:13:47;;;;;;;1.53;1.53;;;18.50;99.90;;;;;;5068988;28;20571;-64
2021/05/18 12:16:16;;;;;;;2.10;1.80;;;18.70;99.90;;;;;;5064418;28;20265;-64
2021/05/18 12:18:46;;;;;;;1.30;1.30;;;18.60;99.90;;;;;;5070878;28;20192;-67
2021/05/18 12:21:16;;;;;;;1.60;1.50;;;18.60;99.90;;;;;;5068878;28;20208;-66
2021/05/18 12:23:44;;;;;;;2.83;1.47;;;18.60;99.90;;;;;;5069680;28;20234;-66
2021/05/18 12:26:15;;;;;;;1.17;1.17;;;18.40;99.90;;;;;;5067618;28;20189;-66
2021/05/18 12:28:54;;;;;;;2.33;1.30;;;18.20;99.90;;;;;;5063506;28;20185;-66
2021/05/18 12:31:32;;;;;;;3.17;1.30;;;18.40;99.90;;;;;;5063418;28;20196;-67
2021/05/18 12:34:01;;;;;;;7.93;1.50;;;18.60;99.90;;;;;;5070136;28;20202;-66
2021/05/18 12:36:30;;;;;;;1.50;1.50;;;18.50;99.90;;;;;;5067949;28;20219;-66
2021/05/18 12:39:11;;;;;;;1.73;1.60;;;18.50;99.90;;;;;;5069064;28;20220;-66
2021/05/18 12:41:49;;;;;;;2.07;1.30;;;18.60;99.90;;;;;;5067686;28;20194;-66
2021/05/18 12:44:19;;;;;;;1.70;1.40;;;18.70;99.90;;;;;;5068269;28;20195;-65
2021/05/18 12:46:59;;;;;;;2.03;1.20;;;18.60;99.90;;;;;;5070060;28;20192;-66
2021/05/18 12:49:34;;;;;;;2.17;1.27;;;18.10;99.90;;;;;;5070512;28;20188;-67
2021/05/18 12:52:04;;;;;;;1.40;1.30;;;17.60;99.90;;;;;;5070025;28;20283;-66
2021/05/18 12:54:49;;;;;;;1.20;1.10;;;17.60;99.90;;;;;;5067339;28;20208;-67
2021/05/18 12:57:19;;;;;;;2.47;1.30;;;17.80;99.90;;;;;;5062106;28;20188;-66
2021/05/18 13:00:15;;;;;;;1.33;1.10;;;18.00;99.90;;;;;;5057694;28;20697;-67
2021/05/18 13:02:45;;;;;;;1.30;1.30;;;18.30;99.90;;;;;;5031099;28;20196;-64
2021/05/18 13:05:17;;;;;;;1.20;1.20;;;18.20;99.90;;;;;;5064796;28;20271;-64
2021/05/18 13:08:05;;;;;;;1.30;1.20;;;18.40;99.90;;;;;;5068490;28;20184;-64
2021/05/18 13:10:39;;;;;;;1.13;1.10;;;18.60;99.90;;;;;;5064882;28;20192;-67
2021/05/18 13:13:09;;;;;;;1.27;1.27;;;18.90;99.90;;;;;;5065109;28;20206;-66
2021/05/18 13:15:37;;;;;;;1.33;0.93;;;19.10;99.90;;;;;;5064401;28;20220;-67
2021/05/18 13:18:09;;;;;;;1.30;1.30;;;19.40;99.90;;;;;;5059334;28;20196;-66
2021/05/18 13:20:50;;;;;;;1.10;1.10;;;19.30;99.90;;;;;;5073772;28;20551;-66
2021/05/18 13:23:30;;;;;;;1.87;1.17;;;19.10;99.90;;;;;;5069205;28;20235;-66
2021/05/18 13:28:58;;;;;;;3.27;1.20;;;19.60;99.90;;;;;;5034345;28;20215;-67
2021/05/18 13:31:27;;;;;;;1.43;0.93;;;19.60;99.90;;;;;;5070498;28;20188;-67
2021/05/18 13:33:56;;;;;;;1.00;1.00;;;19.80;99.90;;;;;;5069050;28;20183;-66
2021/05/18 13:36:43;;;;;;;1.20;1.10;;;19.80;99.90;;;;;;5064554;28;20257;-67
2021/05/18 13:39:15;;;;;;;2.33;1.13;;;20.00;99.90;;;;;;5068542;28;20293;-66
2021/05/18 13:41:47;;;;;;;1.20;1.10;;;19.90;99.90;;;;;;5068885;28;20678;-67
2021/05/18 13:44:18;;;;;;;1.30;1.20;;;19.80;99.90;;;;;;5067158;28;20253;-67
2021/05/18 13:46:47;;;;;;;1.30;1.10;;;19.80;99.90;;;;;;5064308;28;20287;-66
2021/05/18 13:49:16;;;;;;;1.40;1.10;;;19.90;99.90;;;;;;5061912;28;20200;-67
2021/05/18 13:51:45;;;;;;;1.47;1.10;;;19.80;99.90;;;;;;5068264;28;20258;-66
2021/05/18 13:54:30;;;;;;;1.80;1.20;;;20.00;99.90;;;;;;5063828;28;20621;-66
2021/05/18 13:56:59;;;;;;;1.70;1.60;;;20.40;99.90;;;;;;5067702;28;20228;-66
2021/05/18 13:59:27;;;;;;;1.33;1.20;;;20.50;99.90;;;;;;5067712;28;20237;-67
2021/05/18 14:01:56;;;;;;;1.70;1.60;;;20.60;99.90;;;;;;5068879;28;20712;-67
2021/05/18 14:04:24;;;;;;;1.23;1.03;;;20.80;99.90;;;;;;5067308;28;20192;-67
2021/05/18 14:10:17;;;;;;;1.13;1.13;;;21.20;99.90;;;;;;5057482;28;20224;-66
2021/05/18 14:12:45;;;;;;;2.13;1.30;;;21.20;99.90;;;;;;5055461;28;20250;-67
2021/05/18 14:15:15;;;;;;;1.27;1.17;;;21.10;99.90;;;;;;5061488;28;21041;-66
2021/05/18 14:17:43;;;;;;;1.30;1.27;;;20.80;99.90;;;;;;5064509;28;20184;-66
2021/05/18 14:20:11;;;;;;;1.70;1.50;;;20.20;99.90;;;;;;5066482;28;20200;-66
2021/05/18 14:22:40;;;;;;;3.90;1.30;;;20.50;99.90;;;;;;5065249;28;20558;-66
2021/05/18 14:25:09;;;;;;;1.63;1.20;;;20.80;99.90;;;;;;5069099;28;20620;-67
2021/05/18 14:27:57;;;;;;;1.33;1.23;;;21.10;99.90;;;;;;5057704;28;20193;-67
2021/05/18 14:30:25;;;;;;;1.23;1.23;;;21.10;99.90;;;;;;5068970;28;20762;-67
2021/05/18 14:32:53;;;;;;;1.47;1.10;;;21.30;99.90;;;;;;5069686;28;20191;-67
2021/05/18 14:35:22;;;;;;;1.53;1.43;;;21.50;99.90;;;;;;5067907;28;20208;-67
2021/05/18 14:37:55;;;;;;;1.23;1.20;;;21.70;99.90;;;;;;5066132;28;20231;-67
2021/05/18 14:40:39;;;;;;;1.00;1.00;;;21.70;99.90;;;;;;5064183;28;20197;-67
2021/05/18 14:43:28;;;;;;;1.07;1.00;;;21.80;99.90;;;;;;5065248;28;20219;-67
2021/05/18 14:46:04;;;;;;;1.00;1.00;;;22.20;99.90;;;;;;5059568;28;20226;-67
2021/05/18 14:54:18;;;;;;;1.20;1.13;;;21.00;98.50;;;;;;5065582;28;20192;-67
2021/05/18 14:56:47;;;;;;;1.30;1.13;;;21.40;99.90;;;;;;5065358;28;20216;-67
2021/05/18 14:59:14;;;;;;;1.30;1.30;;;21.10;99.50;;;;;;5063360;28;20184;-67
2021/05/18 15:01:42;;;;;;;1.83;1.37;;;20.50;99.20;;;;;;5065244;28;20889;-67
2021/05/18 15:04:10;;;;;;;1.23;1.03;;;20.30;99.90;;;;;;5066064;28;20258;-67
2021/05/18 15:06:40;;;;;;;1.33;1.23;;;20.70;99.90;;;;;;5060109;28;20781;-66
2021/05/18 15:09:09;;;;;;;3.43;1.40;;;21.20;99.90;;;;;;5061828;28;20196;-67
2021/05/18 15:11:37;;;;;;;2.47;1.40;;;21.60;99.30;;;;;;5068709;28;20196;-67
2021/05/18 15:14:08;;;;;;;1.40;1.40;;;21.90;99.90;;;;;;5068709;28;20188;-67
2021/05/18 15:16:36;;;;;;;1.20;1.20;;;22.00;99.90;;;;;;5066548;28;20694;-67
2021/05/18 15:19:07;;;;;;;1.17;1.10;;;21.70;99.90;;;;;;5061347;28;20267;-67
2021/05/18 15:21:35;;;;;;;1.20;1.20;;;21.30;99.80;;;;;;5064446;28;20188;-67
2021/05/18 15:24:05;;;;;;;1.80;1.00;;;20.60;99.90;;;;;;5066802;28;20200;-67
2021/05/18 15:26:34;;;;;;;2.23;1.20;;;20.30;99.90;;;;;;5061263;28;20270;-67
2021/05/18 15:29:02;;;;;;;3.53;1.40;;;20.20;99.80;;;;;;5066671;28;20192;-67
2021/05/18 15:31:30;;;;;;;1.40;1.40;;;19.90;99.20;;;;;;5067200;28;20291;-67
2021/05/18 15:33:58;;;;;;;1.50;1.43;;;19.80;99.90;;;;;;5065433;28;20862;-67
2021/05/18 15:36:27;;;;;;;2.77;1.30;;;19.60;99.90;;;;;;5065511;28;20204;-67
2021/05/18 15:38:55;;;;;;;1.60;1.50;;;19.30;99.90;;;;;;5065935;28;20228;-67
2021/05/18 15:41:23;;;;;;;1.43;1.30;;;19.10;99.90;;;;;;5066479;28;20196;-67
2021/05/18 15:43:51;;;;;;;1.33;1.30;;;19.00;99.90;;;;;;5065447;28;20194;-67
2021/05/18 15:46:19;;;;;;;1.63;1.53;;;18.90;99.90;;;;;;5066640;28;20196;-67
2021/05/18 15:48:47;;;;;;;3.03;1.57;;;18.90;99.90;;;;;;5067157;28;20821;-67
2021/05/18 15:51:15;;;;;;;1.27;1.27;;;18.90;99.90;;;;;;5064289;28;20735;-67
2021/05/18 15:53:43;;;;;;;2.63;1.57;;;19.10;99.90;;;;;;5064715;28;20619;-67
2021/05/18 15:56:12;;;;;;;2.60;1.30;;;19.90;99.90;;;;;;5067925;28;20212;-67
2021/05/18 15:58:40;;;;;;;2.13;1.10;;;20.60;99.90;;;;;;5063976;28;20597;-67
2021/05/18 16:01:09;;;;;;;1.23;1.23;;;20.50;99.90;;;;;;5062980;28;20185;-67
2021/05/18 16:03:40;;;;;;;1.80;1.47;;;20.00;99.90;;;;;;5065420;28;20693;-67
2021/05/18 16:06:08;;;;;;;2.30;1.67;;;19.70;99.90;;;;;;5069782;28;20192;-67
2021/05/18 16:11:21;;;;;;;2.67;1.57;;;19.40;99.90;;;;;;5070139;28;20290;-66
2021/05/18 16:13:49;;;;;;;3.13;1.57;;;19.70;99.90;;;;;;5068839;28;20196;-67
2021/05/18 16:16:18;;;;;;;1.70;1.30;;;20.20;99.90;;;;;;5068262;28;20446;-67
2021/05/18 16:18:46;;;;;;;1.87;1.43;;;20.50;99.90;;;;;;5066247;28;20268;-67
2021/05/18 16:21:17;;;;;;;2.00;1.37;;;20.50;99.80;;;;;;5069118;28;20196;-67
2021/05/18 16:23:48;;;;;;;4.43;1.27;;;20.50;99.90;;;;;;5070464;28;20196;-67
2021/05/18 16:26:18;;;;;;;2.73;1.47;;;20.70;99.90;;;;;;5070017;28;20242;-67
2021/05/18 16:28:46;;;;;;;1.60;1.50;;;20.60;99.90;;;;;;5073799;28;20532;-67
2021/05/18 16:31:14;;;;;;;1.70;1.40;;;20.30;99.90;;;;;;5070469;28;20203;-67
2021/05/18 16:33:44;;;;;;;1.33;1.23;;;19.70;99.90;;;;;;5069209;28;20677;-67
2021/05/18 16:36:15;;;;;;;2.20;1.20;;;19.30;99.90;;;;;;5059066;28;20216;-67
2021/05/18 16:38:44;;;;;;;1.50;1.40;;;19.30;99.90;;;;;;5062530;28;20255;-68
2021/05/18 16:41:31;;;;;;;1.80;1.50;;;19.40;99.90;;;;;;5061849;28;20211;-67
2021/05/18 16:43:59;;;;;;;1.50;1.50;;;19.50;99.90;;;;;;5063862;28;20180;-67
2021/05/18 16:46:27;;;;;;;1.40;1.40;;;20.00;99.90;;;;;;5064939;28;20280;-67
2021/05/18 16:48:56;;;;;;;2.57;1.77;;;20.20;99.90;;;;;;5068450;28;20283;-67
2021/05/18 16:51:24;;;;;;;3.03;1.60;;;20.30;99.90;;;;;;5068416;28;20332;-68
2021/05/18 16:53:53;;;;;;;1.43;1.37;;;20.00;99.90;;;;;;5061949;28;20184;-67
2021/05/18 16:56:22;;;;;;;1.53;1.47;;;19.60;99.90;;;;;;5064811;28;20227;-67
2021/05/18 16:58:52;;;;;;;1.80;1.70;;;19.10;99.90;;;;;;5066781;28;20203;-67
2021/05/18 17:01:21;;;;;;;2.03;1.57;;;18.90;99.90;;;;;;5058451;28;20199;-67
2021/05/18 17:04:10;;;;;;;1.80;1.70;;;18.60;99.90;;;;;;5063238;28;20279;-67
2021/05/18 17:06:38;;;;;;;1.80;1.70;;;18.40;99.90;;;;;;5062802;28;20200;-68
2021/05/18 17:09:07;;;;;;;1.60;1.50;;;18.10;99.90;;;;;;5064679;28;20191;-67
2021/05/18 17:11:35;;;;;;;2.23;1.90;;;17.90;99.90;;;;;;5066429;28;20189;-67
2021/05/18 17:14:05;;;;;;;2.10;1.83;;;17.70;99.90;;;;;;5060387;28;20681;-67
2021/05/18 17:16:33;;;;;;;2.70;1.80;;;17.50;99.90;;;;;;5060446;28;20684;-67
2021/05/18 17:19:01;;;;;;;2.90;1.70;;;17.40;99.90;;;;;;5063450;28;20258;-67
2021/05/18 17:21:30;;;;;;;2.03;1.60;;;17.30;99.90;;;;;;5067556;28;20196;-67